Time;durP1;ratioP1;P1;durP2;ratioP2;P2;SDS_P1;SDS_P2;PMS_P1;PMS_P2;Temp;Humidity;BMP_temperature;BMP_pressure;BME280_temperature;BME280_humidity;BME280_pressure;Samples;Min_cycle;Max_cycle;Signal;HPM_P1;HPM_P2
2021/06/14 00:01:28;;;;;;;;;;;;;;;;;;3554656;27;20006;-46
2021/06/14 00:03:09;;;;;;;;;;;;;;;;;;3552637;27;19927;-45
2021/06/14 00:04:50;;;;;;;;;;;;;;;;;;3555536;27;19934;-47
2021/06/14 00:06:31;;;;;;;;;;;;;;;;;;3562447;27;19979;-45
2021/06/14 00:08:12;;;;;;;;;;;;;;;;;;3558956;27;19931;-47
2021/06/14 00:09:53;;;;;;;;;;;;;;;;;;3553045;27;19930;-46
2021/06/14 00:11:34;;;;;;;;;;;;;;;;;;3555382;27;20026;-45
2021/06/14 00:13:15;;;;;;;;;;;;;;;;;;3552906;27;19927;-46
2021/06/14 00:14:55;;;;;;;;;;;;;;;;;;3553227;27;19928;-45
2021/06/14 00:16:37;;;;;;;;;;;;;;;;;;3555544;27;19948;-47
2021/06/14 00:18:18;;;;;;;;;;;;;;;;;;3552866;27;19927;-47
2021/06/14 00:19:59;;;;;;;;;;;;;;;;;;3555313;27;20474;-47
2021/06/14 00:21:40;;;;;;;;;;;;;;;;;;3552902;27;19927;-50
2021/06/14 00:23:21;;;;;;;;;;;;;;;;;;3553933;27;20006;-48
2021/06/14 00:25:02;;;;;;;;;;;;;;;;;;3553203;27;19935;-47
2021/06/14 00:26:43;;;;;;;;;;;;;;;;;;3553532;27;20017;-47
2021/06/14 00:28:24;;;;;;;;;;;;;;;;;;3554555;27;20287;-49
2021/06/14 00:30:05;;;;;;;;;;;;;;;;;;3552433;27;20063;-48
2021/06/14 00:31:46;;;;;;;;;;;;;;;;;;3555414;27;20072;-48
2021/06/14 00:33:27;;;;;;;;;;;;;;;;;;3552978;27;19931;-49
2021/06/14 00:35:08;;;;;;;;;;;;;;;;;;3553729;27;19972;-47
2021/06/14 00:36:49;;;;;;;;;;;;;;;;;;3552223;27;19931;-47
2021/06/14 00:38:30;;;;;;;;;;;;;;;;;;3554084;27;19969;-48
2021/06/14 00:40:10;;;;;;;;;;;;;;;;;;3555544;27;20033;-47
2021/06/14 00:41:51;;;;;;;;;;;;;;;;;;3552567;27;20330;-47
2021/06/14 00:43:32;;;;;;;;;;;;;;;;;;3553724;27;20451;-46
2021/06/14 00:45:15;;;;;;;;;;;;;;;;;;3552774;27;19954;-46
2021/06/14 00:46:56;;;;;;;;;;;;;;;;;;3555047;27;20026;-46
2021/06/14 00:48:36;;;;;;;;;;;;;;;;;;3553307;27;20450;-48
2021/06/14 00:50:17;;;;;;;;;;;;;;;;;;3553830;27;19966;-47
2021/06/14 00:51:58;;;;;;;;;;;;;;;;;;3557701;27;19927;-46
2021/06/14 00:53:39;;;;;;;;;;;;;;;;;;3554845;27;19934;-46
2021/06/14 00:55:20;;;;;;;;;;;;;;;;;;3556383;27;20019;-47
2021/06/14 00:57:01;;;;;;;;;;;;;;;;;;3554933;27;19931;-47
2021/06/14 00:58:42;;;;;;;;;;;;;;;;;;3557533;27;19974;-46
2021/06/14 01:00:23;;;;;;;;;;;;;;;;;;3554778;27;19931;-46
2021/06/14 01:02:04;;;;;;;;;;;;;;;;;;3557235;27;19927;-46
2021/06/14 01:03:45;;;;;;;;;;;;;;;;;;3555285;27;20408;-46
2021/06/14 01:05:25;;;;;;;;;;;;;;;;;;3554631;27;19933;-46
2021/06/14 01:07:06;;;;;;;;;;;;;;;;;;3557432;27;19927;-46
2021/06/14 01:08:47;;;;;;;;;;;;;;;;;;3554806;27;19962;-47
2021/06/14 01:10:28;;;;;;;;;;;;;;;;;;3557322;27;19933;-47
2021/06/14 01:12:09;;;;;;;;;;;;;;;;;;3554926;27;19927;-46
2021/06/14 01:13:50;;;;;;;;;;;;;;;;;;3556803;27;20484;-46
2021/06/14 01:15:31;;;;;;;;;;;;;;;;;;3557163;27;20394;-46
2021/06/14 01:17:12;;;;;;;;;;;;;;;;;;3555241;27;19942;-46
2021/06/14 01:18:53;;;;;;;;;;;;;;;;;;3557417;27;19926;-46
2021/06/14 01:20:33;;;;;;;;;;;;;;;;;;3555003;27;20092;-47
2021/06/14 01:22:15;;;;;;;;;;;;;;;;;;3555978;27;19927;-47
2021/06/14 01:23:56;;;;;;;;;;;;;;;;;;3554841;27;19959;-46
2021/06/14 01:25:36;;;;;;;;;;;;;;;;;;3556275;27;19927;-46
2021/06/14 01:27:17;;;;;;;;;;;;;;;;;;3554628;27;20339;-47
2021/06/14 01:28:58;;;;;;;;;;;;;;;;;;3555548;27;19934;-46
2021/06/14 01:30:39;;;;;;;;;;;;;;;;;;3556010;27;20722;-45
2021/06/14 01:32:20;;;;;;;;;;;;;;;;;;3554486;27;20397;-45
2021/06/14 01:34:01;;;;;;;;;;;;;;;;;;3557231;27;19934;-46
2021/06/14 01:35:42;;;;;;;;;;;;;;;;;;3554613;27;19934;-46
2021/06/14 01:37:23;;;;;;;;;;;;;;;;;;3554594;27;20025;-46
2021/06/14 01:39:03;;;;;;;;;;;;;;;;;;3555307;27;20025;-46
2021/06/14 01:40:44;;;;;;;;;;;;;;;;;;3556166;27;19927;-47
2021/06/14 01:42:25;;;;;;;;;;;;;;;;;;3557294;27;19962;-45
2021/06/14 01:44:06;;;;;;;;;;;;;;;;;;3554077;27;20033;-46
2021/06/14 01:45:47;;;;;;;;;;;;;;;;;;3555915;27;19931;-45
2021/06/14 01:47:28;;;;;;;;;;;;;;;;;;3554459;27;19981;-46
2021/06/14 01:49:09;;;;;;;;;;;;;;;;;;3556882;27;19927;-46
2021/06/14 01:50:50;;;;;;;;;;;;;;;;;;3553885;27;20391;-45
2021/06/14 01:52:31;;;;;;;;;;;;;;;;;;3557151;27;19927;-46
2021/06/14 01:54:12;;;;;;;;;;;;;;;;;;3556959;27;20467;-46
2021/06/14 01:55:53;;;;;;;;;;;;;;;;;;3554033;27;20045;-45
2021/06/14 01:57:34;;;;;;;;;;;;;;;;;;3555475;27;20384;-45
2021/06/14 01:59:15;;;;;;;;;;;;;;;;;;3565745;27;19926;-45
2021/06/14 02:00:56;;;;;;;;;;;;;;;;;;3557879;27;19927;-45
2021/06/14 02:02:37;;;;;;;;;;;;;;;;;;3553258;27;19934;-46
2021/06/14 02:04:18;;;;;;;;;;;;;;;;;;3555353;27;19927;-46
2021/06/14 02:05:59;;;;;;;;;;;;;;;;;;3556536;27;19987;-45
2021/06/14 02:07:39;;;;;;;;;;;;;;;;;;3554442;27;19926;-46
2021/06/14 02:09:21;;;;;;;;;;;;;;;;;;3555455;27;19933;-45
2021/06/14 02:11:01;;;;;;;;;;;;;;;;;;3554122;27;19968;-46
2021/06/14 02:12:42;;;;;;;;;;;;;;;;;;3555175;27;20462;-46
2021/06/14 02:14:23;;;;;;;;;;;;;;;;;;3565196;27;19931;-48
2021/06/14 02:16:04;;;;;;;;;;;;;;;;;;3557590;27;19972;-47
2021/06/14 02:17:45;;;;;;;;;;;;;;;;;;3554469;27;19927;-46
2021/06/14 02:19:26;;;;;;;;;;;;;;;;;;3554793;27;19927;-46
2021/06/14 02:21:07;;;;;;;;;;;;;;;;;;3555666;27;19927;-47
2021/06/14 02:22:48;;;;;;;;;;;;;;;;;;3553938;27;19949;-49
2021/06/14 02:24:29;;;;;;;;;;;;;;;;;;3556791;27;19949;-49
2021/06/14 02:26:10;;;;;;;;;;;;;;;;;;3554374;27;19955;-49
2021/06/14 02:27:51;;;;;;;;;;;;;;;;;;3556494;27;19927;-47
2021/06/14 02:29:32;;;;;;;;;;;;;;;;;;3555050;27;19934;-48
2021/06/14 02:31:13;;;;;;;;;;;;;;;;;;3555542;27;19989;-46
2021/06/14 02:32:54;;;;;;;;;;;;;;;;;;3556633;27;20306;-46
2021/06/14 02:34:35;;;;;;;;;;;;;;;;;;3554041;27;19927;-47
2021/06/14 02:36:16;;;;;;;;;;;;;;;;;;3553736;27;20395;-48
2021/06/14 02:37:57;;;;;;;;;;;;;;;;;;3553820;27;20427;-47
2021/06/14 02:39:39;;;;;;;;;;;;;;;;;;3556809;27;19927;-46
2021/06/14 02:41:19;;;;;;;;;;;;;;;;;;3553699;27;20029;-47
2021/06/14 02:43:00;;;;;;;;;;;;;;;;;;3555204;27;19996;-45
2021/06/14 02:44:41;;;;;;;;;;;;;;;;;;3556260;27;19927;-46
2021/06/14 02:46:22;;;;;;;;;;;;;;;;;;3554178;27;19927;-45
2021/06/14 02:48:03;;;;;;;;;;;;;;;;;;3554788;27;19931;-46
2021/06/14 02:49:44;;;;;;;;;;;;;;;;;;3553722;27;19933;-46
2021/06/14 02:51:25;;;;;;;;;;;;;;;;;;3556464;27;19971;-47
2021/06/14 02:53:06;;;;;;;;;;;;;;;;;;3553497;27;19933;-48
2021/06/14 02:54:47;;;;;;;;;;;;;;;;;;3553813;27;20391;-47
2021/06/14 02:56:28;;;;;;;;;;;;;;;;;;3556325;27;19974;-47
2021/06/14 02:58:08;;;;;;;;;;;;;;;;;;3553607;27;20316;-46
2021/06/14 02:59:49;;;;;;;;;;;;;;;;;;3556440;27;19978;-46
2021/06/14 03:01:30;;;;;;;;;;;;;;;;;;3553786;27;19949;-46
2021/06/14 03:03:11;;;;;;;;;;;;;;;;;;3556097;27;19993;-46
2021/06/14 03:04:52;;;;;;;;;;;;;;;;;;3553691;27;19927;-46
2021/06/14 03:06:37;;;;;;;;;;;;;;;;;;3556239;27;19934;-46
2021/06/14 03:08:18;;;;;;;;;;;;;;;;;;3555434;27;20409;-47
2021/06/14 03:09:59;;;;;;;;;;;;;;;;;;3553103;27;20402;-46
2021/06/14 03:11:40;;;;;;;;;;;;;;;;;;3555078;27;19938;-46
2021/06/14 03:13:21;;;;;;;;;;;;;;;;;;3555083;27;19927;-46
2021/06/14 03:15:02;;;;;;;;;;;;;;;;;;3559301;27;20498;-47
2021/06/14 03:16:42;;;;;;;;;;;;;;;;;;3553579;27;19971;-47
2021/06/14 03:18:24;;;;;;;;;;;;;;;;;;3556154;27;19927;-45
2021/06/14 03:20:05;;;;;;;;;;;;;;;;;;3555140;27;19968;-47
2021/06/14 03:21:46;;;;;;;;;;;;;;;;;;3554013;27;19927;-47
2021/06/14 03:23:26;;;;;;;;;;;;;;;;;;3556191;27;20030;-46
2021/06/14 03:25:07;;;;;;;;;;;;;;;;;;3554455;27;20009;-46
2021/06/14 03:26:48;;;;;;;;;;;;;;;;;;3553288;27;19978;-47
2021/06/14 03:28:29;;;;;;;;;;;;;;;;;;3553658;27;19927;-46
2021/06/14 03:30:10;;;;;;;;;;;;;;;;;;3555701;27;20332;-46
2021/06/14 03:31:51;;;;;;;;;;;;;;;;;;3553190;27;19927;-42
2021/06/14 03:33:32;;;;;;;;;;;;;;;;;;3553687;27;19978;-42
2021/06/14 03:35:13;;;;;;;;;;;;;;;;;;3553632;27;19976;-42
2021/06/14 03:36:54;;;;;;;;;;;;;;;;;;3553022;27;19934;-42
2021/06/14 03:38:35;;;;;;;;;;;;;;;;;;3554606;27;19930;-42
2021/06/14 03:40:16;;;;;;;;;;;;;;;;;;3553149;27;20036;-42
2021/06/14 03:41:57;;;;;;;;;;;;;;;;;;3554362;27;19974;-42
2021/06/14 03:43:38;;;;;;;;;;;;;;;;;;3553636;27;19933;-42
2021/06/14 03:45:19;;;;;;;;;;;;;;;;;;3555163;27;20055;-42
2021/06/14 03:46:59;;;;;;;;;;;;;;;;;;3554535;27;20284;-42
2021/06/14 03:48:40;;;;;;;;;;;;;;;;;;3552938;27;20281;-42
2021/06/14 03:50:21;;;;;;;;;;;;;;;;;;3554062;27;20018;-42
2021/06/14 03:52:02;;;;;;;;;;;;;;;;;;3552923;27;19959;-42
2021/06/14 03:53:56;;;;;;;;;;;;;;;;;;3554238;27;19983;-42
2021/06/14 03:55:37;;;;;;;;;;;;;;;;;;3553018;27;19966;-42
2021/06/14 03:57:18;;;;;;;;;;;;;;;;;;3553990;27;19926;-42
2021/06/14 03:58:59;;;;;;;;;;;;;;;;;;3553677;27;20001;-42
2021/06/14 04:00:40;;;;;;;;;;;;;;;;;;3553208;27;20452;-42
2021/06/14 04:02:21;;;;;;;;;;;;;;;;;;3554419;27;19934;-42
2021/06/14 04:04:17;;;;;;;;;;;;;;;;;;3552979;27;19934;-43
2021/06/14 04:05:59;;;;;;;;;;;;;;;;;;3554885;27;19927;-46
2021/06/14 04:07:40;;;;;;;;;;;;;;;;;;3553110;27;20022;-46
2021/06/14 04:09:21;;;;;;;;;;;;;;;;;;3553226;27;20348;-45
2021/06/14 04:11:01;;;;;;;;;;;;;;;;;;3555233;27;19927;-46
2021/06/14 04:12:42;;;;;;;;;;;;;;;;;;3552551;27;20017;-49
2021/06/14 04:14:23;;;;;;;;;;;;;;;;;;3551916;27;20017;-46
2021/06/14 04:16:04;;;;;;;;;;;;;;;;;;3555735;27;19933;-46
2021/06/14 04:17:45;;;;;;;;;;;;;;;;;;3553926;27;20021;-46
2021/06/14 04:19:26;;;;;;;;;;;;;;;;;;3555365;27;19937;-46
2021/06/14 04:21:07;;;;;;;;;;;;;;;;;;3552786;27;19930;-46
2021/06/14 04:22:48;;;;;;;;;;;;;;;;;;3555504;27;20029;-46
2021/06/14 04:24:29;;;;;;;;;;;;;;;;;;3553151;27;20410;-46
2021/06/14 04:26:10;;;;;;;;;;;;;;;;;;3555760;27;19931;-47
2021/06/14 04:27:51;;;;;;;;;;;;;;;;;;3557599;27;20026;-46
2021/06/14 04:29:34;;;;;;;;;;;;;;;;;;3555382;27;19935;-46
2021/06/14 04:31:15;;;;;;;;;;;;;;;;;;3556458;27;19930;-47
2021/06/14 04:34:55;;;;;;;;;;;;;;;;;;3556250;27;20338;-46
2021/06/14 04:36:36;;;;;;;;;;;;;;;;;;3555224;27;19931;-46
2021/06/14 04:38:17;;;;;;;;;;;;;;;;;;3556643;27;19927;-46
2021/06/14 04:39:58;;;;;;;;;;;;;;;;;;3556564;27;19927;-46
2021/06/14 04:41:39;;;;;;;;;;;;;;;;;;3555610;27;19927;-43
2021/06/14 04:43:20;;;;;;;;;;;;;;;;;;3556280;27;19927;-43
2021/06/14 04:45:01;;;;;;;;;;;;;;;;;;3555206;27;19927;-43
2021/06/14 04:46:42;;;;;;;;;;;;;;;;;;3556626;27;20022;-42
2021/06/14 04:48:23;;;;;;;;;;;;;;;;;;3568722;27;20371;-43
2021/06/14 04:50:04;;;;;;;;;;;;;;;;;;3554967;27;20455;-43
2021/06/14 04:51:45;;;;;;;;;;;;;;;;;;3556591;27;19931;-43
2021/06/14 04:53:26;;;;;;;;;;;;;;;;;;3554967;27;19927;-43
2021/06/14 04:55:06;;;;;;;;;;;;;;;;;;3557637;27;19931;-43
2021/06/14 04:56:47;;;;;;;;;;;;;;;;;;3555185;27;19941;-44
2021/06/14 04:58:28;;;;;;;;;;;;;;;;;;3554971;27;20055;-43
2021/06/14 05:00:09;;;;;;;;;;;;;;;;;;3555413;27;20016;-43
2021/06/14 05:01:50;;;;;;;;;;;;;;;;;;3554512;27;19927;-43
2021/06/14 05:03:31;;;;;;;;;;;;;;;;;;3556535;27;19933;-43
2021/06/14 05:05:12;;;;;;;;;;;;;;;;;;3554967;27;19931;-47
2021/06/14 05:06:53;;;;;;;;;;;;;;;;;;3557307;27;20076;-44
2021/06/14 05:08:34;;;;;;;;;;;;;;;;;;3555140;27;19931;-44
2021/06/14 05:10:15;;;;;;;;;;;;;;;;;;3556359;27;20397;-44
2021/06/14 05:11:56;;;;;;;;;;;;;;;;;;3555839;27;19934;-46
2021/06/14 05:13:37;;;;;;;;;;;;;;;;;;3560150;27;20021;-43
2021/06/14 05:15:18;;;;;;;;;;;;;;;;;;3567088;27;19926;-44
2021/06/14 05:16:58;;;;;;;;;;;;;;;;;;3554493;27;20459;-44
2021/06/14 05:18:39;;;;;;;;;;;;;;;;;;3557343;27;20071;-43
2021/06/14 05:20:20;;;;;;;;;;;;;;;;;;3555046;27;20338;-43
2021/06/14 05:22:04;;;;;;;;;;;;;;;;;;3556468;27;19927;-43
2021/06/14 05:23:45;;;;;;;;;;;;;;;;;;3555854;27;19927;-43
2021/06/14 05:25:26;;;;;;;;;;;;;;;;;;3556401;27;20406;-44
2021/06/14 05:27:07;;;;;;;;;;;;;;;;;;3554931;27;20013;-43
2021/06/14 05:28:47;;;;;;;;;;;;;;;;;;3554401;27;19931;-43
2021/06/14 05:30:28;;;;;;;;;;;;;;;;;;3556117;27;19933;-43
2021/06/14 05:32:09;;;;;;;;;;;;;;;;;;3554933;27;20372;-44
2021/06/14 05:33:50;;;;;;;;;;;;;;;;;;3555718;27;19927;-44
2021/06/14 05:35:31;;;;;;;;;;;;;;;;;;3554809;27;20446;-44
2021/06/14 05:37:12;;;;;;;;;;;;;;;;;;3557058;27;19931;-44
2021/06/14 05:38:54;;;;;;;;;;;;;;;;;;3557314;27;19926;-43
2021/06/14 05:40:35;;;;;;;;;;;;;;;;;;3554799;27;19927;-46
2021/06/14 05:42:16;;;;;;;;;;;;;;;;;;3555485;27;19927;-46
2021/06/14 05:43:57;;;;;;;;;;;;;;;;;;3554274;27;19927;-47
2021/06/14 05:45:38;;;;;;;;;;;;;;;;;;3555545;27;19927;-46
2021/06/14 05:47:19;;;;;;;;;;;;;;;;;;3554449;27;20344;-47
2021/06/14 05:49:02;;;;;;;;;;;;;;;;;;3557372;27;20288;-46
2021/06/14 05:50:43;;;;;;;;;;;;;;;;;;3557477;27;19974;-46
2021/06/14 05:52:24;;;;;;;;;;;;;;;;;;3554010;27;19931;-47
2021/06/14 05:54:05;;;;;;;;;;;;;;;;;;3557005;27;19970;-46
2021/06/14 05:55:46;;;;;;;;;;;;;;;;;;3554263;27;20295;-47
2021/06/14 05:57:27;;;;;;;;;;;;;;;;;;3557043;27;19933;-46
2021/06/14 05:59:08;;;;;;;;;;;;;;;;;;3554308;27;20348;-46
2021/06/14 06:00:49;;;;;;;;;;;;;;;;;;3556881;27;19927;-46
2021/06/14 06:02:30;;;;;;;;;;;;;;;;;;3556212;27;20481;-46
2021/06/14 06:04:11;;;;;;;;;;;;;;;;;;3554761;27;19930;-46
2021/06/14 06:05:52;;;;;;;;;;;;;;;;;;3556866;27;19927;-46
2021/06/14 06:07:33;;;;;;;;;;;;;;;;;;3554167;27;19934;-48
2021/06/14 06:09:14;;;;;;;;;;;;;;;;;;3556779;27;19927;-45
2021/06/14 06:10:55;;;;;;;;;;;;;;;;;;3554351;27;20288;-46
2021/06/14 06:12:36;;;;;;;;;;;;;;;;;;3555462;27;19927;-46
2021/06/14 06:14:17;;;;;;;;;;;;;;;;;;3560933;27;19931;-46
2021/06/14 06:15:58;;;;;;;;;;;;;;;;;;3554022;27;20022;-46
2021/06/14 06:17:39;;;;;;;;;;;;;;;;;;3556872;27;19931;-46
2021/06/14 06:19:20;;;;;;;;;;;;;;;;;;3554096;27;19933;-46
2021/06/14 06:21:01;;;;;;;;;;;;;;;;;;3556914;27;20030;-46
2021/06/14 06:22:42;;;;;;;;;;;;;;;;;;3553819;27;20333;-44
2021/06/14 06:24:23;;;;;;;;;;;;;;;;;;3557039;27;19934;-44
2021/06/14 06:26:04;;;;;;;;;;;;;;;;;;3555800;27;20417;-47
2021/06/14 06:27:45;;;;;;;;;;;;;;;;;;3553751;27;19927;-46
2021/06/14 06:29:26;;;;;;;;;;;;;;;;;;3556621;27;19963;-46
2021/06/14 06:31:08;;;;;;;;;;;;;;;;;;3554267;27;20410;-45
2021/06/14 06:32:49;;;;;;;;;;;;;;;;;;3554746;27;19927;-44
2021/06/14 06:34:30;;;;;;;;;;;;;;;;;;3553992;27;19955;-44
2021/06/14 06:36:11;;;;;;;;;;;;;;;;;;3556550;27;19927;-44
2021/06/14 06:37:52;;;;;;;;;;;;;;;;;;3556153;27;19935;-45
2021/06/14 06:39:33;;;;;;;;;;;;;;;;;;3553879;27;20013;-44
2021/06/14 06:41:14;;;;;;;;;;;;;;;;;;3554194;27;19934;-44
2021/06/14 06:42:56;;;;;;;;;;;;;;;;;;3553866;27;19927;-45
2021/06/14 06:44:38;;;;;;;;;;;;;;;;;;3554508;27;19927;-45
2021/06/14 06:46:19;;;;;;;;;;;;;;;;;;3554586;27;19927;-45
2021/06/14 06:48:01;;;;;;;;;;;;;;;;;;3554869;27;19935;-45
2021/06/14 06:49:42;;;;;;;;;;;;;;;;;;3556398;27;19934;-45
2021/06/14 06:51:23;;;;;;;;;;;;;;;;;;3553581;27;19981;-44
2021/06/14 06:53:04;;;;;;;;;;;;;;;;;;3553997;27;20147;-47
2021/06/14 06:54:45;;;;;;;;;;;;;;;;;;3553840;27;19933;-47
2021/06/14 06:56:26;;;;;;;;;;;;;;;;;;3556301;27;20421;-46
2021/06/14 06:58:07;;;;;;;;;;;;;;;;;;3554141;27;19927;-47
2021/06/14 06:59:48;;;;;;;;;;;;;;;;;;3555548;27;19926;-46
2021/06/14 07:01:29;;;;;;;;;;;;;;;;;;3556621;27;20014;-47
2021/06/14 07:03:12;;;;;;;;;;;;;;;;;;3553454;27;19931;-46
2021/06/14 07:04:53;;;;;;;;;;;;;;;;;;3555104;27;19970;-46
2021/06/14 07:06:34;;;;;;;;;;;;;;;;;;3553700;27;19927;-47
2021/06/14 07:08:15;;;;;;;;;;;;;;;;;;3556403;27;20372;-47
2021/06/14 07:09:56;;;;;;;;;;;;;;;;;;3553211;27;19927;-47
2021/06/14 07:11:37;;;;;;;;;;;;;;;;;;3555075;27;19927;-46
2021/06/14 07:13:18;;;;;;;;;;;;;;;;;;3552656;27;19931;-47
2021/06/14 07:14:59;;;;;;;;;;;;;;;;;;3553092;27;19927;-50
2021/06/14 07:16:40;;;;;;;;;;;;;;;;;;3553654;27;19970;-46
2021/06/14 07:18:21;;;;;;;;;;;;;;;;;;3553527;27;20380;-46
2021/06/14 07:20:02;;;;;;;;;;;;;;;;;;3554651;27;19927;-46
2021/06/14 07:21:43;;;;;;;;;;;;;;;;;;3553593;27;19949;-46
2021/06/14 07:23:23;;;;;;;;;;;;;;;;;;3555843;27;20459;-48
2021/06/14 07:25:04;;;;;;;;;;;;;;;;;;3554145;27;19931;-46
2021/06/14 07:26:45;;;;;;;;;;;;;;;;;;3553847;27;19934;-47
2021/06/14 07:28:26;;;;;;;;;;;;;;;;;;3555066;27;19927;-47
2021/06/14 07:30:07;;;;;;;;;;;;;;;;;;3553322;27;19938;-46
2021/06/14 07:31:48;;;;;;;;;;;;;;;;;;3554567;27;20296;-46
2021/06/14 07:33:29;;;;;;;;;;;;;;;;;;3553393;27;19966;-48
2021/06/14 07:35:10;;;;;;;;;;;;;;;;;;3555060;27;19934;-45
2021/06/14 07:36:51;;;;;;;;;;;;;;;;;;3565324;27;19926;-47
2021/06/14 07:38:32;;;;;;;;;;;;;;;;;;3553064;27;19927;-46
2021/06/14 07:40:13;;;;;;;;;;;;;;;;;;3554307;27;19933;-47
2021/06/14 07:41:54;;;;;;;;;;;;;;;;;;3553057;27;20033;-47
2021/06/14 07:43:35;;;;;;;;;;;;;;;;;;3555906;27;19969;-46
2021/06/14 07:45:21;;;;;;;;;;;;;;;;;;3553414;27;20395;-47
2021/06/14 07:47:02;;;;;;;;;;;;;;;;;;3555496;27;19931;-46
2021/06/14 07:48:43;;;;;;;;;;;;;;;;;;3555176;27;19961;-47
2021/06/14 07:50:24;;;;;;;;;;;;;;;;;;3553538;27;19931;-46
2021/06/14 07:52:05;;;;;;;;;;;;;;;;;;3554637;27;20014;-47
2021/06/14 07:53:50;;;;;;;;;;;;;;;;;;3553184;27;20288;-45
2021/06/14 07:55:31;;;;;;;;;;;;;;;;;;3555654;27;19927;-44
2021/06/14 07:57:12;;;;;;;;;;;;;;;;;;3553190;27;19960;-45
2021/06/14 07:58:53;;;;;;;;;;;;;;;;;;3555478;27;19942;-44
2021/06/14 08:00:34;;;;;;;;;;;;;;;;;;3553866;27;19969;-47
2021/06/14 08:02:15;;;;;;;;;;;;;;;;;;3554881;27;19927;-45
2021/06/14 08:03:56;;;;;;;;;;;;;;;;;;3554228;27;20504;-44
2021/06/14 08:05:37;;;;;;;;;;;;;;;;;;3553260;27;19935;-44
2021/06/14 08:07:24;;;;;;;;;;;;;;;;;;3555345;27;19931;-44
2021/06/14 08:09:07;;;;;;;;;;;;;;;;;;3553016;27;20337;-45
2021/06/14 08:10:49;;;;;;;;;;;;;;;;;;3555486;27;19931;-45
2021/06/14 08:12:30;;;;;;;;;;;;;;;;;;3555029;27;19927;-46
2021/06/14 08:14:12;;;;;;;;;;;;;;;;;;3552042;27;19952;-47
2021/06/14 08:15:53;;;;;;;;;;;;;;;;;;3555492;27;19926;-47
2021/06/14 08:17:34;;;;;;;;;;;;;;;;;;3552954;27;19927;-46
2021/06/14 08:19:20;;;;;;;;;;;;;;;;;;3553833;27;19933;-48
2021/06/14 08:21:22;;;;;;;;;;;;;;;;;;3553070;27;19966;-46
2021/06/14 08:25:05;;;;;;;;;;;;;;;;;;3555736;27;19933;-47
2021/06/14 08:26:46;;;;;;;;;;;;;;;;;;3552880;27;19934;-49
2021/06/14 08:28:27;;;;;;;;;;;;;;;;;;3555579;27;20017;-47
2021/06/14 08:30:07;;;;;;;;;;;;;;;;;;3553719;27;19977;-47
2021/06/14 08:31:48;;;;;;;;;;;;;;;;;;3555594;27;19948;-47
2021/06/14 08:33:29;;;;;;;;;;;;;;;;;;3565369;27;19927;-46
2021/06/14 08:35:13;;;;;;;;;;;;;;;;;;3552557;27;19962;-48
2021/06/14 08:36:54;;;;;;;;;;;;;;;;;;3553743;27;20502;-49
2021/06/14 08:38:35;;;;;;;;;;;;;;;;;;3552873;27;19928;-46
2021/06/14 08:40:16;;;;;;;;;;;;;;;;;;3555433;27;19933;-46
2021/06/14 08:41:57;;;;;;;;;;;;;;;;;;3552198;27;19927;-47
2021/06/14 08:43:38;;;;;;;;;;;;;;;;;;3554285;27;20030;-49
2021/06/14 08:45:18;;;;;;;;;;;;;;;;;;3554079;27;20021;-49
2021/06/14 08:47:02;;;;;;;;;;;;;;;;;;3552331;27;19927;-47
2021/06/14 08:48:43;;;;;;;;;;;;;;;;;;3555141;27;19976;-50
2021/06/14 08:50:24;;;;;;;;;;;;;;;;;;3552843;27;19953;-46
2021/06/14 08:52:05;;;;;;;;;;;;;;;;;;3555486;27;19927;-49
2021/06/14 08:53:51;;;;;;;;;;;;;;;;;;3552513;27;20025;-47
2021/06/14 08:55:32;;;;;;;;;;;;;;;;;;3553340;27;19974;-50
2021/06/14 08:57:13;;;;;;;;;;;;;;;;;;3553983;27;20295;-49
2021/06/14 08:58:54;;;;;;;;;;;;;;;;;;3552143;27;19982;-46
2021/06/14 09:00:35;;;;;;;;;;;;;;;;;;3555173;27;19937;-47
2021/06/14 09:02:16;;;;;;;;;;;;;;;;;;3552587;27;19927;-47
2021/06/14 09:03:57;;;;;;;;;;;;;;;;;;3555189;27;19966;-47
2021/06/14 09:05:38;;;;;;;;;;;;;;;;;;3552598;27;19934;-47
2021/06/14 09:07:19;;;;;;;;;;;;;;;;;;3553720;27;20295;-46
2021/06/14 09:09:00;;;;;;;;;;;;;;;;;;3555391;27;20298;-46
2021/06/14 09:10:41;;;;;;;;;;;;;;;;;;3552127;27;19927;-47
2021/06/14 09:12:22;;;;;;;;;;;;;;;;;;3557136;27;20371;-46
2021/06/14 09:14:03;;;;;;;;;;;;;;;;;;3563005;27;19926;-47
2021/06/14 09:15:44;;;;;;;;;;;;;;;;;;3559502;27;19931;-46
2021/06/14 09:17:25;;;;;;;;;;;;;;;;;;3554822;27;20371;-47
2021/06/14 09:19:06;;;;;;;;;;;;;;;;;;3557222;27;19927;-46
2021/06/14 09:20:47;;;;;;;;;;;;;;;;;;3555141;27;19934;-46
2021/06/14 09:22:28;;;;;;;;;;;;;;;;;;3554562;27;19927;-46
2021/06/14 09:24:09;;;;;;;;;;;;;;;;;;3556177;27;20417;-47
2021/06/14 09:25:50;;;;;;;;;;;;;;;;;;3554673;27;20017;-46
2021/06/14 09:27:31;;;;;;;;;;;;;;;;;;3557354;27;20664;-47
2021/06/14 09:29:12;;;;;;;;;;;;;;;;;;3565668;27;19937;-46
2021/06/14 09:30:53;;;;;;;;;;;;;;;;;;3557919;27;20013;-47
2021/06/14 09:32:35;;;;;;;;;;;;;;;;;;3556535;27;19930;-46
2021/06/14 09:34:16;;;;;;;;;;;;;;;;;;3554379;27;19931;-47
2021/06/14 09:35:57;;;;;;;;;;;;;;;;;;3557195;27;20432;-46
2021/06/14 09:37:38;;;;;;;;;;;;;;;;;;3554457;27;19931;-46
2021/06/14 09:39:19;;;;;;;;;;;;;;;;;;3557165;27;19927;-46
2021/06/14 09:41:00;;;;;;;;;;;;;;;;;;3554587;27;19926;-46
2021/06/14 09:42:41;;;;;;;;;;;;;;;;;;3557074;27;19991;-46
2021/06/14 09:44:22;;;;;;;;;;;;;;;;;;3554431;27;19926;-47
2021/06/14 09:46:04;;;;;;;;;;;;;;;;;;3554489;27;19975;-47
2021/06/14 09:47:45;;;;;;;;;;;;;;;;;;3557093;27;20018;-47
2021/06/14 09:49:26;;;;;;;;;;;;;;;;;;3554509;27;20391;-47
2021/06/14 09:51:07;;;;;;;;;;;;;;;;;;3557009;27;19975;-46
2021/06/14 09:52:48;;;;;;;;;;;;;;;;;;3554508;27;19970;-46
2021/06/14 09:54:29;;;;;;;;;;;;;;;;;;3556931;27;19974;-47
2021/06/14 09:56:10;;;;;;;;;;;;;;;;;;3555268;27;19966;-46
2021/06/14 09:57:51;;;;;;;;;;;;;;;;;;3556128;27;19956;-46
2021/06/14 09:59:33;;;;;;;;;;;;;;;;;;3554703;27;19927;-46
2021/06/14 10:01:13;;;;;;;;;;;;;;;;;;3554221;27;19965;-46
2021/06/14 10:02:54;;;;;;;;;;;;;;;;;;3554214;27;20410;-47
2021/06/14 10:04:35;;;;;;;;;;;;;;;;;;3554395;27;19931;-46
2021/06/14 10:06:16;;;;;;;;;;;;;;;;;;3556596;27;19933;-47
2021/06/14 10:07:59;;;;;;;;;;;;;;;;;;3554426;27;19981;-45
2021/06/14 10:09:40;;;;;;;;;;;;;;;;;;3555316;27;19934;-47
2021/06/14 10:11:21;;;;;;;;;;;;;;;;;;3557127;27;19931;-45
2021/06/14 10:13:02;;;;;;;;;;;;;;;;;;3552923;27;19970;-46
2021/06/14 10:14:43;;;;;;;;;;;;;;;;;;3563240;27;19935;-46
2021/06/14 10:16:24;;;;;;;;;;;;;;;;;;3554138;27;19997;-45
2021/06/14 10:18:08;;;;;;;;;;;;;;;;;;3555282;27;20103;-46
2021/06/14 10:19:49;;;;;;;;;;;;;;;;;;3554160;27;19927;-45
2021/06/14 10:21:30;;;;;;;;;;;;;;;;;;3556573;27;20299;-47
2021/06/14 10:23:11;;;;;;;;;;;;;;;;;;3555810;27;19991;-47
2021/06/14 10:24:52;;;;;;;;;;;;;;;;;;3553720;27;19927;-48
2021/06/14 10:26:33;;;;;;;;;;;;;;;;;;3556665;27;19927;-45
2021/06/14 10:28:14;;;;;;;;;;;;;;;;;;3554040;27;19963;-45
2021/06/14 10:29:55;;;;;;;;;;;;;;;;;;3555223;27;19958;-47
2021/06/14 10:31:36;;;;;;;;;;;;;;;;;;3554026;27;19927;-46
2021/06/14 10:33:17;;;;;;;;;;;;;;;;;;3555398;27;19966;-45
2021/06/14 10:34:58;;;;;;;;;;;;;;;;;;3554169;27;19956;-46
2021/06/14 10:36:39;;;;;;;;;;;;;;;;;;3553673;27;19933;-46
2021/06/14 10:38:20;;;;;;;;;;;;;;;;;;3555167;27;20034;-45
2021/06/14 10:40:01;;;;;;;;;;;;;;;;;;3553753;27;19927;-46
2021/06/14 10:41:43;;;;;;;;;;;;;;;;;;3554090;27;19931;-45
2021/06/14 10:43:27;;;;;;;;;;;;;;;;;;3554131;27;19979;-45
2021/06/14 10:45:08;;;;;;;;;;;;;;;;;;3555375;27;19977;-45
2021/06/14 10:46:49;;;;;;;;;;;;;;;;;;3556056;27;19952;-46
2021/06/14 10:48:31;;;;;;;;;;;;;;;;;;3554016;27;19985;-47
2021/06/14 10:50:18;;;;;;;;;;;;;;;;;;3556204;27;20410;-46
2021/06/14 10:52:01;;;;;;;;;;;;;;;;;;3553910;27;19970;-45
2021/06/14 10:53:42;;;;;;;;;;;;;;;;;;3555207;27;19966;-48
2021/06/14 10:55:23;;;;;;;;;;;;;;;;;;3553347;27;19927;-45
2021/06/14 10:57:04;;;;;;;;;;;;;;;;;;3555083;27;19927;-46
2021/06/14 10:58:46;;;;;;;;;;;;;;;;;;3555650;27;19926;-46
2021/06/14 11:00:27;;;;;;;;;;;;;;;;;;3553472;27;19972;-45
2021/06/14 11:02:08;;;;;;;;;;;;;;;;;;3554991;27;19931;-44
2021/06/14 11:03:49;;;;;;;;;;;;;;;;;;3554174;27;20357;-47
2021/06/14 11:05:30;;;;;;;;;;;;;;;;;;3556590;27;19927;-44
2021/06/14 11:07:11;;;;;;;;;;;;;;;;;;3553796;27;19933;-44
2021/06/14 11:09:06;;;;;;;;;;;;;;;;;;3553116;27;19950;-44
2021/06/14 11:10:47;;;;;;;;;;;;;;;;;;3554813;27;19934;-44
2021/06/14 11:12:27;;;;;;;;;;;;;;;;;;3553639;27;20025;-45
2021/06/14 11:14:08;;;;;;;;;;;;;;;;;;3554623;27;19931;-44
2021/06/14 11:15:49;;;;;;;;;;;;;;;;;;3553918;27;19927;-43
2021/06/14 11:17:30;;;;;;;;;;;;;;;;;;3555156;27;19933;-43
2021/06/14 11:19:11;;;;;;;;;;;;;;;;;;3553901;27;19927;-44
2021/06/14 11:20:52;;;;;;;;;;;;;;;;;;3559138;27;19927;-44
2021/06/14 11:22:33;;;;;;;;;;;;;;;;;;3563993;27;20323;-43
2021/06/14 11:24:14;;;;;;;;;;;;;;;;;;3553338;27;20277;-44
2021/06/14 11:25:57;;;;;;;;;;;;;;;;;;3555005;27;19955;-44
2021/06/14 11:27:38;;;;;;;;;;;;;;;;;;3553326;27;20380;-44
2021/06/14 11:29:20;;;;;;;;;;;;;;;;;;3553372;27;19934;-44
2021/06/14 11:31:02;;;;;;;;;;;;;;;;;;3552804;27;20306;-43
2021/06/14 11:32:43;;;;;;;;;;;;;;;;;;3553661;27;20026;-43
2021/06/14 11:34:24;;;;;;;;;;;;;;;;;;3555249;27;20009;-46
2021/06/14 11:36:05;;;;;;;;;;;;;;;;;;3553088;27;20319;-46